sensor_id;sensor_type;location;lat;lon;timestamp;P1;durP1;ratioP1;P2;durP2;ratioP2
63217;SDS011;49314;48.278;16.378;2023-06-14T00:01:23;11.43;;;10.83;;
63217;SDS011;49314;48.278;16.378;2023-06-14T00:03:48;8.90;;;8.43;;
63217;SDS011;49314;48.278;16.378;2023-06-14T00:06:13;11.53;;;10.83;;
63217;SDS011;49314;48.278;16.378;2023-06-14T00:08:39;9.55;;;8.88;;
63217;SDS011;49314;48.278;16.378;2023-06-14T00:11:05;10.75;;;10.07;;
63217;SDS011;49314;48.278;16.378;2023-06-14T00:13:31;10.55;;;9.85;;
63217;SDS011;49314;48.278;16.378;2023-06-14T00:15:56;9.37;;;8.87;;
63217;SDS011;49314;48.278;16.378;2023-06-14T00:18:21;10.80;;;9.77;;
63217;SDS011;49314;48.278;16.378;2023-06-14T00:20:49;9.57;;;8.98;;
63217;SDS011;49314;48.278;16.378;2023-06-14T00:23:14;12.82;;;12.23;;
63217;SDS011;49314;48.278;16.378;2023-06-14T00:25:40;9.10;;;8.57;;
63217;SDS011;49314;48.278;16.378;2023-06-14T00:28:05;10.30;;;9.70;;
63217;SDS011;49314;48.278;16.378;2023-06-14T00:30:30;8.77;;;8.27;;
63217;SDS011;49314;48.278;16.378;2023-06-14T00:32:55;10.73;;;10.00;;
63217;SDS011;49314;48.278;16.378;2023-06-14T00:35:21;8.87;;;8.07;;
63217;SDS011;49314;48.278;16.378;2023-06-14T00:37:46;9.50;;;9.00;;
63217;SDS011;49314;48.278;16.378;2023-06-14T00:40:11;11.07;;;10.23;;
63217;SDS011;49314;48.278;16.378;2023-06-14T00:42:36;10.18;;;9.38;;
63217;SDS011;49314;48.278;16.378;2023-06-14T00:45:02;9.40;;;8.90;;
63217;SDS011;49314;48.278;16.378;2023-06-14T00:47:27;13.95;;;12.93;;
63217;SDS011;49314;48.278;16.378;2023-06-14T00:49:53;12.30;;;11.70;;
63217;SDS011;49314;48.278;16.378;2023-06-14T00:52:18;11.43;;;10.70;;
63217;SDS011;49314;48.278;16.378;2023-06-14T00:54:43;11.82;;;10.95;;
63217;SDS011;49314;48.278;16.378;2023-06-14T00:57:12;15.13;;;14.33;;
63217;SDS011;49314;48.278;16.378;2023-06-14T00:59:38;9.02;;;8.52;;
63217;SDS011;49314;48.278;16.378;2023-06-14T01:02:05;8.70;;;8.13;;
63217;SDS011;49314;48.278;16.378;2023-06-14T01:04:30;8.40;;;7.32;;
63217;SDS011;49314;48.278;16.378;2023-06-14T01:07:01;14.27;;;13.38;;
63217;SDS011;49314;48.278;16.378;2023-06-14T01:09:30;14.27;;;13.55;;
63217;SDS011;49314;48.278;16.378;2023-06-14T01:11:59;11.68;;;11.07;;
63217;SDS011;49314;48.278;16.378;2023-06-14T01:14:25;9.38;;;8.77;;
63217;SDS011;49314;48.278;16.378;2023-06-14T01:16:52;10.50;;;9.80;;
63217;SDS011;49314;48.278;16.378;2023-06-14T01:19:18;10.88;;;9.95;;
63217;SDS011;49314;48.278;16.378;2023-06-14T01:21:44;11.48;;;10.77;;
63217;SDS011;49314;48.278;16.378;2023-06-14T01:24:09;10.77;;;9.93;;
63217;SDS011;49314;48.278;16.378;2023-06-14T01:26:35;11.98;;;11.27;;
63217;SDS011;49314;48.278;16.378;2023-06-14T01:29:02;12.30;;;11.50;;
63217;SDS011;49314;48.278;16.378;2023-06-14T01:31:28;10.25;;;9.50;;
63217;SDS011;49314;48.278;16.378;2023-06-14T01:33:54;10.15;;;9.45;;
63217;SDS011;49314;48.278;16.378;2023-06-14T01:36:19;11.07;;;10.38;;
63217;SDS011;49314;48.278;16.378;2023-06-14T01:38:46;12.82;;;12.23;;
63217;SDS011;49314;48.278;16.378;2023-06-14T01:41:11;10.50;;;9.60;;
63217;SDS011;49314;48.278;16.378;2023-06-14T01:43:37;8.93;;;8.43;;
63217;SDS011;49314;48.278;16.378;2023-06-14T01:46:03;12.18;;;11.38;;
63217;SDS011;49314;48.278;16.378;2023-06-14T01:48:30;13.38;;;12.50;;
63217;SDS011;49314;48.278;16.378;2023-06-14T01:50:55;14.48;;;13.77;;
63217;SDS011;49314;48.278;16.378;2023-06-14T01:53:20;12.02;;;11.43;;
63217;SDS011;49314;48.278;16.378;2023-06-14T01:55:46;11.55;;;10.93;;
63217;SDS011;49314;48.278;16.378;2023-06-14T01:58:13;11.35;;;10.70;;
63217;SDS011;49314;48.278;16.378;2023-06-14T02:00:38;11.27;;;10.48;;
63217;SDS011;49314;48.278;16.378;2023-06-14T02:03:03;11.87;;;11.03;;
63217;SDS011;49314;48.278;16.378;2023-06-14T02:05:29;11.93;;;11.15;;
63217;SDS011;49314;48.278;16.378;2023-06-14T02:07:55;11.38;;;10.70;;
63217;SDS011;49314;48.278;16.378;2023-06-14T02:10:20;9.40;;;8.80;;
63217;SDS011;49314;48.278;16.378;2023-06-14T02:12:45;12.38;;;11.52;;
63217;SDS011;49314;48.278;16.378;2023-06-14T02:15:11;10.38;;;9.63;;
63217;SDS011;49314;48.278;16.378;2023-06-14T02:17:43;9.80;;;9.05;;
63217;SDS011;49314;48.278;16.378;2023-06-14T02:20:08;9.15;;;8.40;;
63217;SDS011;49314;48.278;16.378;2023-06-14T02:22:34;10.05;;;9.38;;
63217;SDS011;49314;48.278;16.378;2023-06-14T02:24:59;9.35;;;8.75;;
63217;SDS011;49314;48.278;16.378;2023-06-14T02:27:25;11.73;;;11.15;;
63217;SDS011;49314;48.278;16.378;2023-06-14T02:29:50;10.77;;;9.93;;
63217;SDS011;49314;48.278;16.378;2023-06-14T02:32:15;10.97;;;10.37;;
63217;SDS011;49314;48.278;16.378;2023-06-14T02:34:41;10.60;;;9.93;;
63217;SDS011;49314;48.278;16.378;2023-06-14T02:37:06;8.07;;;7.40;;
63217;SDS011;49314;48.278;16.378;2023-06-14T02:39:31;15.05;;;14.15;;
63217;SDS011;49314;48.278;16.378;2023-06-14T02:41:57;13.67;;;12.77;;
63217;SDS011;49314;48.278;16.378;2023-06-14T02:44:25;9.43;;;8.83;;
63217;SDS011;49314;48.278;16.378;2023-06-14T02:46:52;9.68;;;9.18;;
63217;SDS011;49314;48.278;16.378;2023-06-14T02:49:17;11.50;;;10.80;;
63217;SDS011;49314;48.278;16.378;2023-06-14T02:51:42;10.13;;;9.63;;
63217;SDS011;49314;48.278;16.378;2023-06-14T02:54:07;10.57;;;9.77;;
63217;SDS011;49314;48.278;16.378;2023-06-14T02:56:32;13.57;;;12.93;;
63217;SDS011;49314;48.278;16.378;2023-06-14T02:58:58;11.88;;;11.18;;
63217;SDS011;49314;48.278;16.378;2023-06-14T03:01:25;11.13;;;10.43;;
63217;SDS011;49314;48.278;16.378;2023-06-14T03:03:58;11.57;;;10.77;;
63217;SDS011;49314;48.278;16.378;2023-06-14T03:06:23;12.20;;;11.55;;
63217;SDS011;49314;48.278;16.378;2023-06-14T03:08:50;9.60;;;8.98;;
63217;SDS011;49314;48.278;16.378;2023-06-14T03:11:15;10.50;;;9.90;;
63217;SDS011;49314;48.278;16.378;2023-06-14T03:13:42;9.75;;;9.05;;
63217;SDS011;49314;48.278;16.378;2023-06-14T03:16:08;11.63;;;10.93;;
63217;SDS011;49314;48.278;16.378;2023-06-14T03:18:34;10.85;;;10.25;;
63217;SDS011;49314;48.278;16.378;2023-06-14T03:21:03;10.60;;;10.02;;
63217;SDS011;49314;48.278;16.378;2023-06-14T03:23:28;9.25;;;8.65;;
63217;SDS011;49314;48.278;16.378;2023-06-14T03:25:53;8.50;;;7.83;;
63217;SDS011;49314;48.278;16.378;2023-06-14T03:28:19;10.80;;;9.90;;
63217;SDS011;49314;48.278;16.378;2023-06-14T03:30:44;9.98;;;9.27;;
63217;SDS011;49314;48.278;16.378;2023-06-14T03:33:10;11.30;;;10.77;;
63217;SDS011;49314;48.278;16.378;2023-06-14T03:35:35;13.48;;;12.55;;
63217;SDS011;49314;48.278;16.378;2023-06-14T03:38:01;9.10;;;8.38;;
63217;SDS011;49314;48.278;16.378;2023-06-14T03:40:27;10.93;;;10.27;;
63217;SDS011;49314;48.278;16.378;2023-06-14T03:42:55;10.73;;;9.90;;
63217;SDS011;49314;48.278;16.378;2023-06-14T03:45:21;9.23;;;7.82;;
63217;SDS011;49314;48.278;16.378;2023-06-14T03:47:46;9.18;;;7.32;;
63217;SDS011;49314;48.278;16.378;2023-06-14T03:50:11;10.50;;;9.70;;
63217;SDS011;49314;48.278;16.378;2023-06-14T03:52:37;9.23;;;8.43;;
63217;SDS011;49314;48.278;16.378;2023-06-14T03:55:02;7.75;;;7.25;;
63217;SDS011;49314;48.278;16.378;2023-06-14T03:57:29;10.02;;;9.15;;
63217;SDS011;49314;48.278;16.378;2023-06-14T03:59:54;8.38;;;7.63;;
63217;SDS011;49314;48.278;16.378;2023-06-14T04:02:19;10.57;;;9.68;;
63217;SDS011;49314;48.278;16.378;2023-06-14T04:04:45;8.70;;;8.05;;
63217;SDS011;49314;48.278;16.378;2023-06-14T04:07:13;10.70;;;10.00;;
63217;SDS011;49314;48.278;16.378;2023-06-14T04:09:39;11.00;;;10.27;;
63217;SDS011;49314;48.278;16.378;2023-06-14T04:12:04;10.27;;;9.48;;
63217;SDS011;49314;48.278;16.378;2023-06-14T04:14:30;13.00;;;12.10;;
63217;SDS011;49314;48.278;16.378;2023-06-14T04:16:55;11.82;;;10.77;;
63217;SDS011;49314;48.278;16.378;2023-06-14T04:19:21;10.95;;;10.32;;
63217;SDS011;49314;48.278;16.378;2023-06-14T04:21:46;10.10;;;9.40;;
63217;SDS011;49314;48.278;16.378;2023-06-14T04:24:11;10.37;;;9.57;;
63217;SDS011;49314;48.278;16.378;2023-06-14T04:26:41;8.73;;;8.10;;
63217;SDS011;49314;48.278;16.378;2023-06-14T04:29:09;9.90;;;9.30;;
63217;SDS011;49314;48.278;16.378;2023-06-14T04:31:34;7.57;;;6.97;;
63217;SDS011;49314;48.278;16.378;2023-06-14T04:34:02;9.90;;;9.13;;
63217;SDS011;49314;48.278;16.378;2023-06-14T04:36:30;10.52;;;9.75;;
63217;SDS011;49314;48.278;16.378;2023-06-14T04:38:55;9.35;;;8.65;;
63217;SDS011;49314;48.278;16.378;2023-06-14T04:41:21;9.70;;;9.10;;
63217;SDS011;49314;48.278;16.378;2023-06-14T04:43:48;9.05;;;8.18;;
63217;SDS011;49314;48.278;16.378;2023-06-14T04:46:14;8.48;;;7.78;;
63217;SDS011;49314;48.278;16.378;2023-06-14T04:48:40;7.80;;;7.30;;
63217;SDS011;49314;48.278;16.378;2023-06-14T04:51:08;9.23;;;7.00;;
63217;SDS011;49314;48.278;16.378;2023-06-14T04:53:33;6.63;;;6.10;;
63217;SDS011;49314;48.278;16.378;2023-06-14T04:55:59;7.05;;;6.45;;
63217;SDS011;49314;48.278;16.378;2023-06-14T04:58:26;7.72;;;6.93;;
63217;SDS011;49314;48.278;16.378;2023-06-14T05:00:51;10.88;;;9.73;;
63217;SDS011;49314;48.278;16.378;2023-06-14T05:03:16;11.18;;;8.77;;
63217;SDS011;49314;48.278;16.378;2023-06-14T05:05:43;8.68;;;7.97;;
63217;SDS011;49314;48.278;16.378;2023-06-14T05:08:09;7.13;;;6.63;;
63217;SDS011;49314;48.278;16.378;2023-06-14T05:10:34;6.45;;;5.95;;
63217;SDS011;49314;48.278;16.378;2023-06-14T05:13:01;7.80;;;7.07;;
63217;SDS011;49314;48.278;16.378;2023-06-14T05:15:26;6.63;;;6.03;;
63217;SDS011;49314;48.278;16.378;2023-06-14T05:17:52;6.83;;;6.23;;
63217;SDS011;49314;48.278;16.378;2023-06-14T05:20:20;7.03;;;6.50;;
63217;SDS011;49314;48.278;16.378;2023-06-14T05:22:46;7.22;;;6.72;;
63217;SDS011;49314;48.278;16.378;2023-06-14T05:25:11;6.97;;;6.33;;
63217;SDS011;49314;48.278;16.378;2023-06-14T05:27:36;6.60;;;6.00;;
63217;SDS011;49314;48.278;16.378;2023-06-14T05:30:02;6.20;;;5.70;;
63217;SDS011;49314;48.278;16.378;2023-06-14T05:32:28;7.20;;;6.65;;
63217;SDS011;49314;48.278;16.378;2023-06-14T05:34:54;6.18;;;5.68;;
63217;SDS011;49314;48.278;16.378;2023-06-14T05:37:19;5.50;;;4.63;;
63217;SDS011;49314;48.278;16.378;2023-06-14T05:39:44;6.18;;;5.32;;
63217;SDS011;49314;48.278;16.378;2023-06-14T05:42:10;5.60;;;4.87;;
63217;SDS011;49314;48.278;16.378;2023-06-14T05:44:35;5.85;;;5.13;;
63217;SDS011;49314;48.278;16.378;2023-06-14T05:47:01;5.13;;;4.63;;
63217;SDS011;49314;48.278;16.378;2023-06-14T05:49:26;8.60;;;4.88;;
63217;SDS011;49314;48.278;16.378;2023-06-14T05:51:52;4.67;;;4.20;;
63217;SDS011;49314;48.278;16.378;2023-06-14T05:54:17;4.63;;;4.23;;
63217;SDS011;49314;48.278;16.378;2023-06-14T05:56:42;5.73;;;4.70;;
63217;SDS011;49314;48.278;16.378;2023-06-14T05:59:07;4.03;;;3.63;;
63217;SDS011;49314;48.278;16.378;2023-06-14T06:01:32;5.10;;;3.60;;
63217;SDS011;49314;48.278;16.378;2023-06-14T06:03:58;4.40;;;3.65;;
63217;SDS011;49314;48.278;16.378;2023-06-14T06:06:24;3.43;;;3.20;;
63217;SDS011;49314;48.278;16.378;2023-06-14T06:08:50;3.58;;;3.20;;
63217;SDS011;49314;48.278;16.378;2023-06-14T06:11:15;3.67;;;3.37;;
63217;SDS011;49314;48.278;16.378;2023-06-14T06:13:40;4.40;;;3.03;;
63217;SDS011;49314;48.278;16.378;2023-06-14T06:16:06;3.80;;;3.17;;
63217;SDS011;49314;48.278;16.378;2023-06-14T06:18:31;5.03;;;3.83;;
63217;SDS011;49314;48.278;16.378;2023-06-14T06:20:56;4.13;;;3.73;;
63217;SDS011;49314;48.278;16.378;2023-06-14T06:23:22;4.95;;;3.22;;
63217;SDS011;49314;48.278;16.378;2023-06-14T06:25:47;4.10;;;3.23;;
63217;SDS011;49314;48.278;16.378;2023-06-14T06:28:12;6.43;;;3.70;;
63217;SDS011;49314;48.278;16.378;2023-06-14T06:30:38;5.20;;;2.80;;
63217;SDS011;49314;48.278;16.378;2023-06-14T06:33:03;4.03;;;3.20;;
63217;SDS011;49314;48.278;16.378;2023-06-14T06:35:28;4.10;;;2.70;;
63217;SDS011;49314;48.278;16.378;2023-06-14T06:37:55;5.00;;;3.28;;
63217;SDS011;49314;48.278;16.378;2023-06-14T06:40:20;5.82;;;3.30;;
63217;SDS011;49314;48.278;16.378;2023-06-14T06:42:46;3.73;;;2.73;;
63217;SDS011;49314;48.278;16.378;2023-06-14T06:45:11;3.97;;;2.90;;
63217;SDS011;49314;48.278;16.378;2023-06-14T06:47:36;4.23;;;3.23;;
63217;SDS011;49314;48.278;16.378;2023-06-14T06:50:01;4.60;;;2.93;;
63217;SDS011;49314;48.278;16.378;2023-06-14T06:52:27;5.70;;;3.35;;
63217;SDS011;49314;48.278;16.378;2023-06-14T06:54:52;4.40;;;3.33;;
63217;SDS011;49314;48.278;16.378;2023-06-14T06:57:20;4.43;;;2.97;;
63217;SDS011;49314;48.278;16.378;2023-06-14T06:59:45;3.67;;;3.33;;
63217;SDS011;49314;48.278;16.378;2023-06-14T07:02:10;4.90;;;2.90;;
63217;SDS011;49314;48.278;16.378;2023-06-14T07:04:35;5.00;;;2.97;;
63217;SDS011;49314;48.278;16.378;2023-06-14T07:07:01;7.30;;;4.00;;
63217;SDS011;49314;48.278;16.378;2023-06-14T07:09:26;3.20;;;3.00;;
63217;SDS011;49314;48.278;16.378;2023-06-14T07:11:51;5.80;;;3.27;;
63217;SDS011;49314;48.278;16.378;2023-06-14T07:14:17;3.13;;;2.88;;
63217;SDS011;49314;48.278;16.378;2023-06-14T07:16:42;3.37;;;3.00;;
63217;SDS011;49314;48.278;16.378;2023-06-14T07:19:08;4.50;;;3.47;;
63217;SDS011;49314;48.278;16.378;2023-06-14T07:21:34;3.40;;;3.10;;
63217;SDS011;49314;48.278;16.378;2023-06-14T07:23:59;4.97;;;2.88;;
63217;SDS011;49314;48.278;16.378;2023-06-14T07:26:24;8.03;;;3.20;;
63217;SDS011;49314;48.278;16.378;2023-06-14T07:28:50;3.22;;;2.65;;
63217;SDS011;49314;48.278;16.378;2023-06-14T07:31:15;4.80;;;2.85;;
63217;SDS011;49314;48.278;16.378;2023-06-14T07:33:41;3.63;;;2.80;;
63217;SDS011;49314;48.278;16.378;2023-06-14T07:36:07;3.72;;;3.05;;
63217;SDS011;49314;48.278;16.378;2023-06-14T07:38:32;4.78;;;2.70;;
63217;SDS011;49314;48.278;16.378;2023-06-14T07:40:57;3.17;;;2.50;;
63217;SDS011;49314;48.278;16.378;2023-06-14T07:43:22;4.23;;;2.93;;
63217;SDS011;49314;48.278;16.378;2023-06-14T07:45:48;3.17;;;2.87;;
63217;SDS011;49314;48.278;16.378;2023-06-14T07:48:13;3.20;;;2.90;;
63217;SDS011;49314;48.278;16.378;2023-06-14T07:50:38;3.70;;;2.63;;
63217;SDS011;49314;48.278;16.378;2023-06-14T07:53:03;3.03;;;2.70;;
63217;SDS011;49314;48.278;16.378;2023-06-14T07:55:29;3.27;;;2.50;;
63217;SDS011;49314;48.278;16.378;2023-06-14T07:57:54;2.63;;;2.43;;
63217;SDS011;49314;48.278;16.378;2023-06-14T08:00:19;3.15;;;2.53;;
63217;SDS011;49314;48.278;16.378;2023-06-14T08:02:45;2.67;;;2.35;;
63217;SDS011;49314;48.278;16.378;2023-06-14T08:05:11;3.03;;;2.53;;
63217;SDS011;49314;48.278;16.378;2023-06-14T08:07:36;2.50;;;2.30;;
63217;SDS011;49314;48.278;16.378;2023-06-14T08:10:02;3.00;;;2.55;;
63217;SDS011;49314;48.278;16.378;2023-06-14T08:12:27;2.65;;;2.45;;
63217;SDS011;49314;48.278;16.378;2023-06-14T08:14:53;3.17;;;2.83;;
63217;SDS011;49314;48.278;16.378;2023-06-14T08:17:18;2.80;;;2.47;;
63217;SDS011;49314;48.278;16.378;2023-06-14T08:19:43;2.80;;;2.60;;
63217;SDS011;49314;48.278;16.378;2023-06-14T08:22:08;3.10;;;2.53;;
63217;SDS011;49314;48.278;16.378;2023-06-14T08:24:36;3.95;;;2.50;;
63217;SDS011;49314;48.278;16.378;2023-06-14T08:27:01;3.37;;;3.07;;
63217;SDS011;49314;48.278;16.378;2023-06-14T08:29:27;3.63;;;2.20;;
63217;SDS011;49314;48.278;16.378;2023-06-14T08:31:54;2.88;;;2.65;;
63217;SDS011;49314;48.278;16.378;2023-06-14T08:34:20;5.55;;;2.60;;
63217;SDS011;49314;48.278;16.378;2023-06-14T08:36:45;2.33;;;2.13;;
63217;SDS011;49314;48.278;16.378;2023-06-14T08:39:10;2.53;;;2.33;;
63217;SDS011;49314;48.278;16.378;2023-06-14T08:41:36;3.10;;;2.15;;
63217;SDS011;49314;48.278;16.378;2023-06-14T08:44:01;3.30;;;2.47;;
63217;SDS011;49314;48.278;16.378;2023-06-14T08:46:26;2.17;;;1.97;;
63217;SDS011;49314;48.278;16.378;2023-06-14T08:48:55;3.25;;;2.45;;
63217;SDS011;49314;48.278;16.378;2023-06-14T08:51:24;2.88;;;2.67;;
63217;SDS011;49314;48.278;16.378;2023-06-14T08:53:54;2.92;;;2.00;;
63217;SDS011;49314;48.278;16.378;2023-06-14T08:56:26;2.88;;;2.58;;
63217;SDS011;49314;48.278;16.378;2023-06-14T08:58:53;2.72;;;2.53;;
63217;SDS011;49314;48.278;16.378;2023-06-14T09:01:18;4.38;;;2.58;;
63217;SDS011;49314;48.278;16.378;2023-06-14T09:03:44;3.47;;;2.50;;
63217;SDS011;49314;48.278;16.378;2023-06-14T09:06:09;2.65;;;2.45;;
63217;SDS011;49314;48.278;16.378;2023-06-14T09:08:40;3.88;;;2.10;;
63217;SDS011;49314;48.278;16.378;2023-06-14T09:11:05;2.42;;;2.22;;
63217;SDS011;49314;48.278;16.378;2023-06-14T09:13:30;3.33;;;2.60;;
63217;SDS011;49314;48.278;16.378;2023-06-14T09:15:56;2.67;;;2.30;;
63217;SDS011;49314;48.278;16.378;2023-06-14T09:18:21;2.77;;;2.57;;
63217;SDS011;49314;48.278;16.378;2023-06-14T09:20:46;2.87;;;2.50;;
63217;SDS011;49314;48.278;16.378;2023-06-14T09:23:13;2.58;;;2.38;;
63217;SDS011;49314;48.278;16.378;2023-06-14T09:25:41;2.28;;;1.83;;
63217;SDS011;49314;48.278;16.378;2023-06-14T09:28:07;2.95;;;2.35;;
63217;SDS011;49314;48.278;16.378;2023-06-14T09:30:33;2.75;;;2.45;;
63217;SDS011;49314;48.278;16.378;2023-06-14T09:32:58;4.93;;;2.77;;
63217;SDS011;49314;48.278;16.378;2023-06-14T09:35:24;2.83;;;2.43;;
63217;SDS011;49314;48.278;16.378;2023-06-14T09:37:49;2.60;;;2.40;;
63217;SDS011;49314;48.278;16.378;2023-06-14T09:40:17;3.45;;;2.97;;
63217;SDS011;49314;48.278;16.378;2023-06-14T09:42:45;2.83;;;2.63;;
63217;SDS011;49314;48.278;16.378;2023-06-14T09:45:10;3.70;;;2.38;;
63217;SDS011;49314;48.278;16.378;2023-06-14T09:47:37;2.95;;;2.20;;
63217;SDS011;49314;48.278;16.378;2023-06-14T09:50:03;2.70;;;2.55;;
63217;SDS011;49314;48.278;16.378;2023-06-14T09:52:28;3.30;;;2.08;;
63217;SDS011;49314;48.278;16.378;2023-06-14T09:54:55;2.35;;;2.15;;
63217;SDS011;49314;48.278;16.378;2023-06-14T09:57:21;3.67;;;2.60;;
63217;SDS011;49314;48.278;16.378;2023-06-14T09:59:47;3.30;;;2.28;;
63217;SDS011;49314;48.278;16.378;2023-06-14T10:05:15;3.50;;;2.20;;
63217;SDS011;49314;48.278;16.378;2023-06-14T10:07:44;3.17;;;2.10;;
63217;SDS011;49314;48.278;16.378;2023-06-14T10:10:13;3.50;;;2.37;;
63217;SDS011;49314;48.278;16.378;2023-06-14T10:12:38;2.78;;;2.40;;
63217;SDS011;49314;48.278;16.378;2023-06-14T10:15:03;3.97;;;2.40;;
63217;SDS011;49314;48.278;16.378;2023-06-14T10:19:55;3.83;;;2.43;;
63217;SDS011;49314;48.278;16.378;2023-06-14T10:22:29;2.63;;;2.13;;
63217;SDS011;49314;48.278;16.378;2023-06-14T10:24:55;3.47;;;2.35;;
63217;SDS011;49314;48.278;16.378;2023-06-14T10:27:21;2.88;;;2.17;;
63217;SDS011;49314;48.278;16.378;2023-06-14T10:32:18;2.60;;;2.40;;
63217;SDS011;49314;48.278;16.378;2023-06-14T10:34:44;3.45;;;3.13;;
63217;SDS011;49314;48.278;16.378;2023-06-14T10:37:13;3.67;;;2.92;;
63217;SDS011;49314;48.278;16.378;2023-06-14T10:39:40;6.05;;;2.67;;
63217;SDS011;49314;48.278;16.378;2023-06-14T10:42:06;3.15;;;2.72;;
63217;SDS011;49314;48.278;16.378;2023-06-14T10:47:00;2.30;;;2.20;;
63217;SDS011;49314;48.278;16.378;2023-06-14T10:49:39;4.85;;;2.80;;
63217;SDS011;49314;48.278;16.378;2023-06-14T10:52:08;4.67;;;2.70;;
63217;SDS011;49314;48.278;16.378;2023-06-14T10:54:37;2.90;;;2.45;;
63217;SDS011;49314;48.278;16.378;2023-06-14T10:57:02;2.50;;;2.20;;
63217;SDS011;49314;48.278;16.378;2023-06-14T10:59:31;2.97;;;2.25;;
63217;SDS011;49314;48.278;16.378;2023-06-14T11:04:21;3.63;;;2.17;;
63217;SDS011;49314;48.278;16.378;2023-06-14T11:06:49;3.25;;;2.72;;
63217;SDS011;49314;48.278;16.378;2023-06-14T11:11:45;4.80;;;2.47;;
63217;SDS011;49314;48.278;16.378;2023-06-14T11:14:10;2.75;;;2.55;;
63217;SDS011;49314;48.278;16.378;2023-06-14T11:16:36;2.50;;;2.30;;
63217;SDS011;49314;48.278;16.378;2023-06-14T11:19:01;4.20;;;2.50;;
63217;SDS011;49314;48.278;16.378;2023-06-14T11:21:31;2.55;;;2.33;;
63217;SDS011;49314;48.278;16.378;2023-06-14T11:23:58;3.60;;;2.50;;
63217;SDS011;49314;48.278;16.378;2023-06-14T11:26:29;3.85;;;2.60;;
63217;SDS011;49314;48.278;16.378;2023-06-14T11:28:56;3.15;;;2.40;;
63217;SDS011;49314;48.278;16.378;2023-06-14T11:31:22;2.47;;;2.10;;
63217;SDS011;49314;48.278;16.378;2023-06-14T11:33:50;2.83;;;2.55;;
63217;SDS011;49314;48.278;16.378;2023-06-14T11:36:16;2.45;;;2.25;;
63217;SDS011;49314;48.278;16.378;2023-06-14T11:38:41;3.15;;;2.83;;
63217;SDS011;49314;48.278;16.378;2023-06-14T11:41:07;4.68;;;2.58;;
63217;SDS011;49314;48.278;16.378;2023-06-14T11:43:32;3.60;;;2.37;;
63217;SDS011;49314;48.278;16.378;2023-06-14T11:45:59;3.15;;;2.55;;
63217;SDS011;49314;48.278;16.378;2023-06-14T11:48:41;3.33;;;2.57;;
63217;SDS011;49314;48.278;16.378;2023-06-14T11:51:06;2.75;;;2.15;;
63217;SDS011;49314;48.278;16.378;2023-06-14T11:53:31;3.88;;;2.60;;
63217;SDS011;49314;48.278;16.378;2023-06-14T11:55:57;3.72;;;2.15;;
63217;SDS011;49314;48.278;16.378;2023-06-14T11:58:22;2.78;;;2.50;;
63217;SDS011;49314;48.278;16.378;2023-06-14T12:00:51;3.23;;;2.70;;
63217;SDS011;49314;48.278;16.378;2023-06-14T12:03:17;2.65;;;2.45;;
63217;SDS011;49314;48.278;16.378;2023-06-14T12:05:42;2.97;;;2.58;;
63217;SDS011;49314;48.278;16.378;2023-06-14T12:08:08;2.45;;;2.30;;
63217;SDS011;49314;48.278;16.378;2023-06-14T12:10:40;2.72;;;2.53;;
63217;SDS011;49314;48.278;16.378;2023-06-14T12:13:08;3.60;;;2.72;;
63217;SDS011;49314;48.278;16.378;2023-06-14T12:15:34;2.95;;;2.72;;
63217;SDS011;49314;48.278;16.378;2023-06-14T12:18:00;4.55;;;2.47;;
63217;SDS011;49314;48.278;16.378;2023-06-14T12:20:29;3.70;;;2.90;;
63217;SDS011;49314;48.278;16.378;2023-06-14T12:22:55;3.80;;;3.30;;
63217;SDS011;49314;48.278;16.378;2023-06-14T12:25:32;4.55;;;2.80;;
63217;SDS011;49314;48.278;16.378;2023-06-14T12:28:07;5.28;;;3.28;;
63217;SDS011;49314;48.278;16.378;2023-06-14T12:30:32;2.67;;;2.47;;
63217;SDS011;49314;48.278;16.378;2023-06-14T12:32:58;2.55;;;2.35;;
63217;SDS011;49314;48.278;16.378;2023-06-14T12:35:23;3.97;;;2.33;;
63217;SDS011;49314;48.278;16.378;2023-06-14T12:37:48;2.87;;;2.67;;
63217;SDS011;49314;48.278;16.378;2023-06-14T12:40:14;3.53;;;2.93;;
63217;SDS011;49314;48.278;16.378;2023-06-14T12:42:39;5.30;;;2.90;;
63217;SDS011;49314;48.278;16.378;2023-06-14T12:45:05;2.67;;;2.47;;
63217;SDS011;49314;48.278;16.378;2023-06-14T12:47:30;4.93;;;2.28;;
63217;SDS011;49314;48.278;16.378;2023-06-14T12:49:56;2.83;;;2.40;;
63217;SDS011;49314;48.278;16.378;2023-06-14T12:52:21;3.97;;;2.97;;
63217;SDS011;49314;48.278;16.378;2023-06-14T12:54:46;2.67;;;2.47;;
63217;SDS011;49314;48.278;16.378;2023-06-14T12:57:11;4.47;;;2.17;;
63217;SDS011;49314;48.278;16.378;2023-06-14T12:59:37;3.00;;;2.33;;
63217;SDS011;49314;48.278;16.378;2023-06-14T13:02:15;4.23;;;2.20;;
63217;SDS011;49314;48.278;16.378;2023-06-14T13:04:41;4.03;;;2.90;;
63217;SDS011;49314;48.278;16.378;2023-06-14T13:07:06;3.07;;;2.47;;
63217;SDS011;49314;48.278;16.378;2023-06-14T13:09:31;3.03;;;2.72;;
63217;SDS011;49314;48.278;16.378;2023-06-14T13:11:56;2.67;;;2.43;;
63217;SDS011;49314;48.278;16.378;2023-06-14T13:14:22;4.03;;;2.88;;
63217;SDS011;49314;48.278;16.378;2023-06-14T13:16:47;4.18;;;2.78;;
63217;SDS011;49314;48.278;16.378;2023-06-14T13:19:13;3.85;;;2.90;;
63217;SDS011;49314;48.278;16.378;2023-06-14T13:21:38;5.47;;;2.77;;
63217;SDS011;49314;48.278;16.378;2023-06-14T13:24:03;4.90;;;2.90;;
63217;SDS011;49314;48.278;16.378;2023-06-14T13:26:28;4.07;;;2.92;;
63217;SDS011;49314;48.278;16.378;2023-06-14T13:28:54;5.70;;;2.87;;
63217;SDS011;49314;48.278;16.378;2023-06-14T13:31:19;5.60;;;2.80;;
63217;SDS011;49314;48.278;16.378;2023-06-14T13:33:44;3.17;;;2.77;;
63217;SDS011;49314;48.278;16.378;2023-06-14T13:36:09;6.53;;;3.45;;
63217;SDS011;49314;48.278;16.378;2023-06-14T13:38:35;4.40;;;2.50;;
63217;SDS011;49314;48.278;16.378;2023-06-14T13:41:00;4.83;;;2.70;;
63217;SDS011;49314;48.278;16.378;2023-06-14T13:43:25;5.83;;;2.90;;
63217;SDS011;49314;48.278;16.378;2023-06-14T13:45:50;5.90;;;3.60;;
63217;SDS011;49314;48.278;16.378;2023-06-14T13:48:16;4.47;;;2.93;;
63217;SDS011;49314;48.278;16.378;2023-06-14T13:50:41;4.97;;;3.00;;
63217;SDS011;49314;48.278;16.378;2023-06-14T13:53:06;5.40;;;3.13;;
63217;SDS011;49314;48.278;16.378;2023-06-14T13:55:32;7.70;;;3.27;;
63217;SDS011;49314;48.278;16.378;2023-06-14T13:57:57;5.38;;;3.05;;
63217;SDS011;49314;48.278;16.378;2023-06-14T14:00:23;5.23;;;2.83;;
63217;SDS011;49314;48.278;16.378;2023-06-14T14:02:48;3.33;;;2.22;;
63217;SDS011;49314;48.278;16.378;2023-06-14T14:05:15;3.10;;;2.70;;
63217;SDS011;49314;48.278;16.378;2023-06-14T14:07:40;4.60;;;2.95;;
63217;SDS011;49314;48.278;16.378;2023-06-14T14:10:06;4.13;;;3.40;;
63217;SDS011;49314;48.278;16.378;2023-06-14T14:12:31;3.60;;;2.90;;
63217;SDS011;49314;48.278;16.378;2023-06-14T14:14:57;3.10;;;2.60;;
63217;SDS011;49314;48.278;16.378;2023-06-14T14:17:22;4.32;;;2.63;;
63217;SDS011;49314;48.278;16.378;2023-06-14T14:19:48;8.77;;;3.28;;
63217;SDS011;49314;48.278;16.378;2023-06-14T14:22:13;3.20;;;2.90;;
63217;SDS011;49314;48.278;16.378;2023-06-14T14:24:38;3.93;;;2.90;;
63217;SDS011;49314;48.278;16.378;2023-06-14T14:27:05;3.05;;;2.75;;
63217;SDS011;49314;48.278;16.378;2023-06-14T14:29:31;4.20;;;2.75;;
63217;SDS011;49314;48.278;16.378;2023-06-14T14:31:56;3.40;;;2.60;;
63217;SDS011;49314;48.278;16.378;2023-06-14T14:34:22;3.30;;;3.00;;
63217;SDS011;49314;48.278;16.378;2023-06-14T14:36:47;5.93;;;2.88;;
63217;SDS011;49314;48.278;16.378;2023-06-14T14:39:13;2.83;;;2.50;;